Time;durP1;ratioP1;P1;durP2;ratioP2;P2;SDS_P1;SDS_P2;PMS_P1;PMS_P2;Temp;Humidity;BMP_temperature;BMP_pressure;BME280_temperature;BME280_humidity;BME280_pressure;Samples;Min_cycle;Max_cycle;Signal;HPM_P1;HPM_P2
2023/04/21 00:00:00;;;;;;;8.85;5.18;;;;;;;13.64;62.92;99253.97;3144213;28;20094;-69
2023/04/21 00:01:33;;;;;;;8.02;5.55;;;;;;;13.60;63.09;99252.47;3142582;28;20052;-68
2023/04/21 00:03:04;;;;;;;10.57;5.47;;;;;;;13.50;63.06;99230.50;3142635;28;20060;-69
2023/04/21 00:04:37;;;;;;;16.83;5.82;;;;;;;13.51;62.96;99240.00;3141366;28;20053;-68
2023/04/21 00:06:09;;;;;;;9.75;5.45;;;;;;;13.46;63.44;99236.84;3141539;28;20099;-68
2023/04/21 00:07:41;;;;;;;11.35;5.65;;;;;;;13.46;63.29;99247.31;3144244;28;20554;-69
2023/04/21 00:09:13;;;;;;;7.63;5.10;;;;;;;13.42;63.71;99238.84;3144769;28;20055;-69
2023/04/21 00:10:46;;;;;;;11.60;5.78;;;;;;;13.41;63.70;99240.63;3144677;28;20120;-69
2023/04/21 00:12:18;;;;;;;10.20;5.68;;;;;;;13.38;63.70;99243.44;3139909;28;20064;-69
2023/04/21 00:13:50;;;;;;;9.68;5.53;;;;;;;13.35;63.96;99232.34;3138437;28;20048;-69
2023/04/21 00:15:23;;;;;;;8.07;5.65;;;;;;;13.35;64.18;99234.97;3144967;28;20052;-68
2023/04/21 00:16:55;;;;;;;9.13;5.85;;;;;;;13.25;63.95;99224.28;3144347;28;20771;-68
2023/04/21 00:18:27;;;;;;;8.85;5.57;;;;;;;13.25;64.21;99232.13;3144887;28;20048;-68
2023/04/21 00:19:59;;;;;;;10.35;6.35;;;;;;;13.30;64.23;99237.03;3142489;28;20051;-68
2023/04/21 00:21:30;;;;;;;10.60;6.25;;;;;;;13.30;64.41;99244.88;3138711;28;20076;-68
2023/04/21 00:23:03;;;;;;;9.85;5.80;;;;;;;13.30;64.72;99237.88;3132998;28;20063;-68
2023/04/21 00:24:34;;;;;;;9.20;5.15;;;;;;;13.28;64.72;99239.75;3144898;28;20048;-68
2023/04/21 00:26:06;;;;;;;9.38;6.05;;;;;;;13.28;64.64;99237.16;3140620;28;20251;-68
2023/04/21 00:27:38;;;;;;;10.07;5.93;;;;;;;13.24;64.49;99240.84;3134881;28;20064;-68
2023/04/21 00:29:10;;;;;;;10.68;5.30;;;;;;;13.21;64.80;99239.28;3140918;28;20052;-68
2023/04/21 00:30:42;;;;;;;9.57;5.55;;;;;;;13.20;65.18;99235.00;3142886;28;20133;-68
2023/04/21 00:32:15;;;;;;;10.43;5.38;;;;;;;13.19;64.96;99232.47;3144936;28;20128;-68
2023/04/21 00:33:46;;;;;;;12.70;6.32;;;;;;;13.13;65.00;99228.50;3135604;28;20056;-68
2023/04/21 00:35:18;;;;;;;10.35;5.70;;;;;;;13.16;65.20;99230.03;3132750;28;20049;-68
2023/04/21 00:36:50;;;;;;;8.98;5.50;;;;;;;13.16;65.02;99227.44;3139546;28;20101;-68
2023/04/21 00:38:22;;;;;;;12.70;5.95;;;;;;;13.15;65.27;99231.81;3144564;28;20742;-68
2023/04/21 00:39:54;;;;;;;10.35;5.78;;;;;;;13.16;65.10;99235.28;3144317;28;20513;-68
2023/04/21 00:41:28;;;;;;;11.57;6.53;;;;;;;13.09;65.33;99229.63;3139779;28;20053;-68
2023/04/21 00:43:00;;;;;;;10.55;5.90;;;;;;;13.08;65.35;99227.94;3144530;28;20502;-68
2023/04/21 00:44:31;;;;;;;13.63;5.78;;;;;;;13.06;65.38;99234.22;3147067;28;20795;-69
2023/04/21 00:46:05;;;;;;;12.50;6.20;;;;;;;13.03;65.82;99230.00;3146914;28;20044;-68
2023/04/21 00:47:36;;;;;;;;;;;;;;;12.92;65.75;99230.69;3134043;28;20051;-68
2023/04/21 00:49:08;;;;;;;12.65;6.40;;;;;;;12.86;66.07;99230.25;3137054;28;19924;-68
2023/04/21 00:50:40;;;;;;;9.02;5.80;;;;;;;12.81;66.11;99220.09;3137632;28;20061;-68
2023/04/21 00:52:14;;;;;;;11.32;6.28;;;;;;;12.81;66.29;99221.84;3146245;28;20053;-68
2023/04/21 00:53:45;;;;;;;9.52;6.53;;;;;;;12.78;66.44;99216.81;3146635;28;20094;-68
2023/04/21 00:55:17;;;;;;;13.00;6.07;;;;;;;12.82;66.66;99226.16;3137441;28;20057;-68
2023/04/21 00:56:48;;;;;;;11.43;6.32;;;;;;;12.79;66.38;99221.13;3122174;28;20148;-68
2023/04/21 00:58:20;;;;;;;11.45;6.47;;;;;;;12.80;66.79;99223.63;3145174;28;20413;-67
2023/04/21 00:59:51;;;;;;;9.73;5.63;;;;;;;12.78;66.95;99225.53;3142900;28;20049;-68
2023/04/21 01:01:24;;;;;;;12.40;6.50;;;;;;;12.79;66.59;99226.38;3144211;28;20109;-67
2023/04/21 01:02:56;;;;;;;;;;;;;;;12.69;66.73;99236.56;3143935;28;20450;-68
2023/04/21 01:04:34;;;;;;;11.40;5.05;;;;;;;12.65;66.71;99220.22;3136633;28;20039;-68
2023/04/21 01:06:06;;;;;;;9.18;6.25;;;;;;;12.64;67.10;99215.09;3143053;28;20040;-67
2023/04/21 01:07:39;;;;;;;12.85;6.20;;;;;;;12.46;67.03;99183.97;3146717;28;20052;-68
2023/04/21 01:09:12;;;;;;;10.68;6.25;;;;;;;12.70;66.88;99215.56;3142008;28;20052;-67
2023/04/21 01:10:44;;;;;;;10.65;5.97;;;;;;;12.70;66.93;99220.78;3136777;28;20076;-69
2023/04/21 01:12:15;;;;;;;12.73;6.63;;;;;;;12.59;67.38;99197.09;3146653;28;20135;-67
2023/04/21 01:13:46;;;;;;;11.57;6.75;;;;;;;12.68;67.51;99211.34;3146534;28;20052;-68
2023/04/21 01:15:18;;;;;;;16.33;6.90;;;;;;;12.69;67.26;99223.50;3146622;28;20056;-68
2023/04/21 01:16:51;;;;;;;11.57;6.20;;;;;;;12.64;67.67;99215.94;3146581;28;20044;-68
2023/04/21 01:18:23;;;;;;;12.77;6.90;;;;;;;12.61;68.04;99220.53;3144247;28;20071;-68
2023/04/21 01:19:56;;;;;;;12.90;6.78;;;;;;;12.60;67.73;99226.66;3144777;28;20448;-68
2023/04/21 01:21:30;;;;;;;11.38;7.25;;;;;;;12.62;67.92;99230.03;3146031;28;20529;-68
2023/04/21 01:23:04;;;;;;;13.27;7.78;;;;;;;12.57;68.54;99225.09;3144523;28;20151;-68
2023/04/21 01:24:38;;;;;;;10.13;6.90;;;;;;;12.55;68.25;99220.91;3141653;28;20045;-67
2023/04/21 01:26:08;;;;;;;;;;;;;;;12.48;68.40;99231.75;3147177;28;20394;-67
2023/04/21 01:27:40;;;;;;;14.45;7.30;;;;;;;12.42;68.68;99211.22;3146233;28;19931;-68
2023/04/21 01:29:11;;;;;;;13.40;7.97;;;;;;;12.40;69.00;99209.66;3143402;28;20052;-67
2023/04/21 01:30:43;;;;;;;11.73;7.80;;;;;;;12.48;69.18;99218.69;3145234;28;20161;-68
2023/04/21 01:32:17;;;;;;;12.05;7.05;;;;;;;12.48;69.04;99218.69;3146243;28;20102;-69
2023/04/21 01:33:48;;;;;;;14.48;8.07;;;;;;;12.49;69.01;99222.13;3146050;28;20052;-67
2023/04/21 01:35:20;;;;;;;16.38;7.78;;;;;;;12.43;69.19;99218.13;3137977;28;20484;-68
2023/04/21 01:36:51;;;;;;;13.38;7.50;;;;;;;12.48;69.24;99225.66;3141784;28;20098;-68
2023/04/21 01:38:25;;;;;;;12.98;7.72;;;;;;;12.48;69.59;99226.53;3141161;28;20139;-68
2023/04/21 01:39:57;;;;;;;;;;;;;;;12.38;69.51;99225.38;3142463;28;20048;-69
2023/04/21 01:41:29;;;;;;;11.75;7.03;;;;;;;12.38;69.75;99222.78;3146007;28;19929;-69
2023/04/21 01:43:02;;;;;;;10.35;6.85;;;;;;;12.37;69.66;99212.44;3146338;28;20041;-68
2023/04/21 01:44:33;;;;;;;;;;;;;;;12.33;69.27;99218.78;3146601;28;20048;-67
2023/04/21 01:46:06;;;;;;;13.07;7.85;;;;;;;12.30;69.43;99222.41;3146182;28;19920;-68
2023/04/21 01:47:37;;;;;;;12.40;7.20;;;;;;;12.27;69.48;99218.25;3135649;28;20106;-68
2023/04/21 01:49:09;;;;;;;13.30;8.65;;;;;;;12.23;69.99;99215.91;3146283;28;20131;-68
2023/04/21 01:50:41;;;;;;;15.40;7.95;;;;;;;12.22;70.18;99212.44;3135252;28;20080;-68
2023/04/21 01:52:12;;;;;;;12.82;8.07;;;;;;;12.24;70.06;99221.00;3134415;28;20057;-68
2023/04/21 01:53:45;;;;;;;12.98;7.50;;;;;;;12.23;70.32;99215.91;3141860;28;20515;-67
2023/04/21 01:55:17;;;;;;;14.10;7.63;;;;;;;12.15;70.63;99208.53;3120831;28;20515;-68
2023/04/21 01:56:48;;;;;;;11.02;7.55;;;;;;;12.17;70.70;99217.09;3133208;28;20057;-69
2023/04/21 01:58:20;;;;;;;13.95;7.82;;;;;;;12.12;70.72;99213.94;3144595;28;20582;-68
2023/04/21 01:59:52;;;;;;;12.20;7.68;;;;;;;12.14;70.73;99217.28;3145926;28;20052;-69
2023/04/21 02:01:24;;;;;;;13.32;7.50;;;;;;;12.13;71.20;99226.06;3144968;28;20461;-68
2023/04/21 02:02:56;;;;;;;14.38;8.13;;;;;;;12.10;70.88;99222.78;3142722;28;20056;-67
2023/04/21 02:04:28;;;;;;;10.65;6.63;;;;;;;12.07;71.03;99227.28;3145207;28;20052;-68
2023/04/21 02:05:58;;;;;;;11.70;7.55;;;;;;;12.05;70.98;99231.75;3141551;28;20052;-69
2023/04/21 02:07:30;;;;;;;14.82;7.80;;;;;;;11.96;71.06;99221.03;3145761;28;20192;-68
2023/04/21 02:09:03;;;;;;;11.77;8.50;;;;;;;11.80;71.01;99211.47;3141444;28;20049;-70
2023/04/21 02:10:35;;;;;;;18.42;9.13;;;;;;;11.88;71.20;99228.47;3145893;28;20049;-68
2023/04/21 02:12:07;;;;;;;16.58;7.97;;;;;;;11.75;70.99;99217.91;3141001;28;20052;-67
2023/04/21 02:13:38;;;;;;;12.63;8.48;;;;;;;11.76;71.10;99225.63;3145804;28;20129;-68
2023/04/21 02:15:11;;;;;;;18.05;8.88;;;;;;;11.77;70.99;99234.28;3138451;28;20044;-70
2023/04/21 02:16:43;;;;;;;15.38;8.43;;;;;;;11.76;71.16;99243.03;3145997;28;20056;-67
2023/04/21 02:18:15;;;;;;;12.32;8.45;;;;;;;11.71;71.26;99234.63;3145821;28;20057;-69
2023/04/21 02:19:46;;;;;;;20.83;10.13;;;;;;;11.71;71.44;99239.84;3139666;28;20415;-67
2023/04/21 02:21:18;;;;;;;14.73;9.13;;;;;;;11.69;71.94;99239.97;3145686;28;20071;-67
2023/04/21 02:22:50;;;;;;;13.20;8.75;;;;;;;11.66;71.99;99234.94;3124854;28;20448;-67
2023/04/21 02:24:22;;;;;;;13.35;9.15;;;;;;;11.59;71.93;99226.63;3145439;28;20060;-67
2023/04/21 02:25:54;;;;;;;15.57;9.32;;;;;;;11.52;71.98;99224.47;3139832;28;20060;-67
2023/04/21 02:27:26;;;;;;;13.82;9.13;;;;;;;11.48;72.23;99228.19;3143574;28;20125;-70
2023/04/21 02:28:57;;;;;;;14.70;9.30;;;;;;;11.34;72.72;99205.50;3144770;28;20455;-68
2023/04/21 02:30:29;;;;;;;12.80;8.48;;;;;;;11.38;72.91;99217.41;3142012;28;20052;-67
2023/04/21 02:32:01;;;;;;;15.27;9.52;;;;;;;11.39;72.63;99230.38;3145412;28;20064;-67
2023/04/21 02:33:32;;;;;;;12.00;8.18;;;;;;;11.34;73.10;99221.97;3141335;28;20056;-66
2023/04/21 02:35:05;;;;;;;15.10;9.02;;;;;;;11.35;73.18;99222.81;3134040;28;20455;-66
2023/04/21 02:36:36;;;;;;;13.18;9.02;;;;;;;11.31;73.25;99218.72;3139320;28;20052;-65
2023/04/21 02:38:09;;;;;;;13.85;8.32;;;;;;;11.22;73.27;99207.03;3141150;28;20137;-67
2023/04/21 02:39:43;;;;;;;10.93;8.18;;;;;;;11.29;73.44;99224.00;3145439;28;20097;-67
2023/04/21 02:41:15;;;;;;;12.30;8.15;;;;;;;11.27;73.07;99220.66;3144861;28;20051;-67
2023/04/21 02:42:46;;;;;;;12.07;7.90;;;;;;;11.25;73.56;99224.28;3145710;28;20079;-66
2023/04/21 02:44:18;;;;;;;13.23;8.05;;;;;;;11.20;73.36;99221.91;3145217;28;20513;-67
2023/04/21 02:45:50;;;;;;;15.88;7.95;;;;;;;11.18;73.37;99220.31;3145565;28;20049;-67
2023/04/21 02:47:22;;;;;;;13.88;8.32;;;;;;;11.15;73.38;99221.34;3135433;28;20049;-68
2023/04/21 02:48:53;;;;;;;16.48;8.93;;;;;;;11.08;73.36;99215.63;3145120;28;20514;-68
2023/04/21 02:50:25;;;;;;;14.35;7.80;;;;;;;11.08;73.76;99223.47;3136562;28;20064;-68
2023/04/21 02:51:57;;;;;;;12.48;8.13;;;;;;;11.02;73.40;99212.56;3124142;28;20166;-68
2023/04/21 02:53:28;;;;;;;10.95;7.40;;;;;;;10.90;73.77;99201.88;3144512;28;20594;-68
2023/04/21 02:55:02;;;;;;;12.77;7.57;;;;;;;10.95;73.39;99214.66;3144993;28;20121;-68
2023/04/21 02:56:34;;;;;;;11.27;7.10;;;;;;;10.91;73.38;99207.94;3145157;28;20509;-68
2023/04/21 02:58:06;;;;;;;12.98;8.25;;;;;;;10.90;73.52;99219.28;3145232;28;20091;-68
2023/04/21 02:59:38;;;;;;;12.15;7.30;;;;;;;10.86;73.56;99210.81;3144867;28;20549;-68
2023/04/21 03:01:09;;;;;;;12.38;8.90;;;;;;;10.82;73.73;99217.09;3144782;28;20674;-68
2023/04/21 03:02:41;;;;;;;11.73;7.47;;;;;;;10.79;73.62;99213.81;3140012;28;20076;-69
2023/04/21 03:04:12;;;;;;;14.40;7.43;;;;;;;10.76;73.51;99219.22;3145455;28;20045;-68
2023/04/21 03:05:43;;;;;;;12.82;7.80;;;;;;;10.73;73.60;99216.78;3139471;28;20059;-68
2023/04/21 03:07:15;;;;;;;13.40;7.63;;;;;;;10.71;73.66;99229.91;3137776;28;20048;-68
2023/04/21 03:08:46;;;;;;;13.20;7.47;;;;;;;10.66;74.00;99213.66;3137287;28;20767;-69
2023/04/21 03:10:20;;;;;;;16.05;9.10;;;;;;;10.67;74.06;99216.19;3140667;28;20064;-68
2023/04/21 03:11:51;;;;;;;11.10;7.78;;;;;;;10.63;73.97;99221.66;3136110;28;20687;-69
2023/04/21 03:13:24;;;;;;;13.45;7.88;;;;;;;10.56;73.86;99213.34;3144971;28;20052;-68
2023/04/21 03:14:56;;;;;;;16.93;7.90;;;;;;;10.58;73.83;99224.50;3144953;28;20050;-68
2023/04/21 03:16:27;;;;;;;11.98;7.65;;;;;;;10.55;74.33;99224.66;3136374;28;20685;-68
2023/04/21 03:17:58;;;;;;;13.05;7.53;;;;;;;10.54;74.13;99224.75;3144779;28;20055;-67
2023/04/21 03:19:31;;;;;;;13.43;7.70;;;;;;;10.51;74.49;99228.38;3143773;28;20059;-68
2023/04/21 03:21:03;;;;;;;20.25;8.75;;;;;;;10.45;74.51;99226.09;3132729;28;20044;-68
2023/04/21 03:22:35;;;;;;;12.27;7.68;;;;;;;10.43;74.42;99222.72;3134927;28;20445;-68
2023/04/21 03:24:08;;;;;;;14.23;8.15;;;;;;;10.00;74.49;99158.19;3142124;28;20475;-69
2023/04/21 03:25:41;;;;;;;13.75;8.10;;;;;;;10.43;74.66;99230.53;3144531;28;20437;-68
2023/04/21 03:27:13;;;;;;;12.43;7.28;;;;;;;10.42;74.76;99234.06;3144722;28;20340;-69
2023/04/21 03:28:45;;;;;;;14.80;8.30;;;;;;;10.42;75.21;99232.31;3144957;28;20056;-68
2023/04/21 03:30:17;;;;;;;15.95;8.82;;;;;;;10.42;75.28;99227.09;3140376;28;20105;-66
2023/04/21 03:31:49;;;;;;;13.88;8.32;;;;;;;10.34;74.96;99223.22;3144858;28;20041;-68
2023/04/21 03:33:21;;;;;;;13.32;8.05;;;;;;;10.38;75.04;99224.72;3145141;28;20053;-67
2023/04/21 03:34:53;;;;;;;12.70;8.25;;;;;;;10.42;75.11;99234.06;3140496;28;20110;-68
2023/04/21 03:36:25;;;;;;;13.10;8.05;;;;;;;10.41;75.01;99243.66;3137005;28;20489;-67
2023/04/21 03:37:57;;;;;;;17.27;8.27;;;;;;;10.41;75.56;99238.44;3145060;28;20584;-67
2023/04/21 03:39:29;;;;;;;15.07;8.32;;;;;;;10.18;75.33;99207.56;3144668;28;20053;-68
2023/04/21 03:41:03;;;;;;;16.00;9.05;;;;;;;10.40;75.37;99236.75;3144591;28;20059;-67
2023/04/21 03:42:36;;;;;;;16.00;8.63;;;;;;;10.39;75.34;99245.47;3143375;28;20059;-67
2023/04/21 03:44:06;;;;;;;16.55;8.48;;;;;;;10.39;75.71;99236.84;3133673;28;20135;-67
2023/04/21 03:45:38;;;;;;;14.65;8.23;;;;;;;10.39;75.63;99248.09;3144545;28;20590;-67
2023/04/21 03:47:10;;;;;;;13.50;8.45;;;;;;;10.37;75.54;99249.09;3134975;28;20069;-69
2023/04/21 03:48:42;;;;;;;13.43;8.07;;;;;;;10.38;75.40;99255.97;3144356;28;20126;-68
2023/04/21 03:50:14;;;;;;;14.40;8.00;;;;;;;10.38;75.53;99255.97;3137448;28;20053;-68
2023/04/21 03:51:45;;;;;;;15.55;8.18;;;;;;;10.28;75.80;99240.00;3143353;28;20055;-69
2023/04/21 03:53:17;;;;;;;14.80;8.75;;;;;;;10.38;75.35;99255.97;3144260;28;20055;-69
2023/04/21 03:54:48;;;;;;;17.20;8.85;;;;;;;10.38;75.44;99254.22;3144546;28;20059;-69
2023/04/21 03:56:22;;;;;;;17.38;8.75;;;;;;;10.33;75.36;99251.00;3145274;28;20049;-68
2023/04/21 03:57:53;;;;;;;15.82;8.77;;;;;;;10.35;75.74;99251.78;3140868;28;20066;-68
2023/04/21 03:59:25;;;;;;;16.92;9.13;;;;;;;10.33;75.46;99255.38;3139255;28;20064;-69
2023/04/21 04:00:56;;;;;;;18.40;8.63;;;;;;;10.35;75.88;99261.31;3144629;28;20048;-68
2023/04/21 04:02:29;;;;;;;15.20;9.27;;;;;;;10.34;75.81;99257.88;3141048;28;20490;-68
2023/04/21 04:04:01;;;;;;;20.83;10.05;;;;;;;10.33;75.95;99263.19;3144428;28;20048;-68
2023/04/21 04:05:33;;;;;;;21.75;10.70;;;;;;;10.33;76.09;99263.19;3139152;28;20048;-68
2023/04/21 04:07:06;;;;;;;20.75;11.00;;;;;;;10.32;76.32;99267.53;3142717;28;20047;-68
2023/04/21 04:08:38;;;;;;;18.85;10.15;;;;;;;10.31;75.99;99265.03;3144632;28;20054;-68
2023/04/21 04:10:10;;;;;;;16.00;9.88;;;;;;;10.29;76.23;99257.28;3144670;28;20049;-68
2023/04/21 04:11:43;;;;;;;18.02;10.25;;;;;;;10.29;76.41;99262.47;3138222;28;20442;-67
2023/04/21 04:13:15;;;;;;;18.38;10.57;;;;;;;10.31;76.33;99270.22;3133493;28;20449;-67
2023/04/21 04:14:47;;;;;;;19.10;11.18;;;;;;;10.29;76.70;99256.44;3139546;28;20510;-68
2023/04/21 04:16:19;;;;;;;18.83;11.18;;;;;;;10.28;76.55;99262.59;3144698;28;20053;-67
2023/04/21 04:17:51;;;;;;;17.40;10.73;;;;;;;10.28;77.04;99266.03;3143707;28;20059;-68
2023/04/21 04:19:23;;;;;;;19.52;10.48;;;;;;;10.28;77.18;99268.63;3145267;28;20125;-67
2023/04/21 04:20:55;;;;;;;18.70;9.98;;;;;;;10.27;77.35;99269.56;3146659;28;20528;-69
2023/04/21 04:22:27;;;;;;;20.65;10.68;;;;;;;10.26;77.38;99262.63;3148922;28;20052;-68
2023/04/21 04:23:59;;;;;;;20.50;11.15;;;;;;;10.25;77.69;99260.94;3148338;28;20495;-69
2023/04/21 04:25:32;;;;;;;20.45;11.23;;;;;;;10.28;77.68;99267.78;3147973;28;20049;-74
2023/04/21 04:27:05;;;;;;;18.88;11.10;;;;;;;10.24;77.94;99261.88;3142954;28;20054;-70
2023/04/21 04:28:37;;;;;;;19.45;10.85;;;;;;;10.24;78.04;99254.06;3148695;28;20049;-68
2023/04/21 04:30:09;;;;;;;20.67;11.43;;;;;;;10.29;78.61;99267.69;3144005;28;20044;-69
2023/04/21 04:31:41;;;;;;;24.65;11.35;;;;;;;10.29;78.57;99259.88;3148071;28;20570;-66
2023/04/21 04:33:12;;;;;;;19.52;12.77;;;;;;;10.31;78.99;99272.84;3137384;28;20056;-70
2023/04/21 04:34:45;;;;;;;34.78;20.42;;;;;;;10.34;79.05;99275.28;3136519;28;20446;-66
2023/04/21 04:36:17;;;;;;;22.17;12.40;;;;;;;10.34;79.12;99270.91;3144315;28;20044;-70
2023/04/21 04:37:49;;;;;;;23.65;12.95;;;;;;;10.31;79.12;99255.44;3148504;28;20088;-69
2023/04/21 04:39:21;;;;;;;31.83;19.42;;;;;;;10.41;79.51;99281.81;3148729;28;20052;-71
2023/04/21 04:40:54;;;;;;;20.95;11.95;;;;;;;10.41;79.15;99268.81;3144471;28;20585;-67
2023/04/21 04:42:26;;;;;;;16.45;10.32;;;;;;;10.51;79.46;99275.22;3148226;28;20049;-67
2023/04/21 04:43:58;;;;;;;16.48;10.25;;;;;;;10.44;79.29;99253.91;3148191;28;20110;-68
2023/04/21 04:45:31;;;;;;;32.38;17.77;;;;;;;10.56;79.13;99268.03;3148142;28;20076;-69
2023/04/21 04:47:04;;;;;;;23.75;13.65;;;;;;;10.65;79.45;99270.13;3141239;28;20110;-69
2023/04/21 04:48:37;;;;;;;20.48;11.70;;;;;;;10.69;79.19;99270.78;3135420;28;20059;-67
2023/04/21 04:50:11;;;;;;;31.25;19.73;;;;;;;10.68;78.81;99269.97;3139405;28;20049;-69
2023/04/21 04:51:42;;;;;;;16.38;10.40;;;;;;;10.79;78.84;99276.34;3146507;28;20076;-67
2023/04/21 04:53:32;;;;;;;20.15;9.50;;;;;;;10.75;78.46;99259.22;3145080;28;20486;-70
2023/04/21 04:55:04;;;;;;;14.18;8.73;;;;;;;10.84;78.18;99269.94;3136085;28;20080;-73
2023/04/21 04:56:37;;;;;;;20.25;9.23;;;;;;;10.67;77.76;99228.38;3146794;28;20048;-72
2023/04/21 04:58:10;;;;;;;15.38;8.63;;;;;;;10.99;77.03;99283.91;3148308;28;20106;-74
2023/04/21 04:59:42;;;;;;;16.40;8.63;;;;;;;11.04;76.75;99286.25;3148052;28;20586;-72
2023/04/21 05:01:15;;;;;;;18.27;8.82;;;;;;;11.10;76.18;99275.50;3147841;28;20056;-71
2023/04/21 05:02:47;;;;;;;12.15;8.45;;;;;;;11.10;75.83;99273.72;3143436;28;20139;-74
2023/04/21 05:04:19;;;;;;;14.90;8.20;;;;;;;11.22;75.68;99284.41;3143584;28;20051;-74
2023/04/21 05:05:51;;;;;;;16.17;7.93;;;;;;;11.26;75.13;99284.13;3142605;28;20048;-75
2023/04/21 05:07:23;;;;;;;12.40;8.73;;;;;;;11.33;74.96;99282.03;3148360;28;20083;-73
2023/04/21 05:08:55;;;;;;;17.20;7.97;;;;;;;11.36;74.47;99285.31;3144065;28;20099;-78
2023/04/21 05:10:27;;;;;;;15.95;7.90;;;;;;;11.42;74.09;99278.91;3147787;28;20517;-74
2023/04/21 05:12:00;;;;;;;14.57;8.48;;;;;;;11.44;73.82;99273.59;3147369;28;20048;-74
2023/04/21 05:13:33;;;;;;;14.00;7.78;;;;;;;11.51;73.36;99285.38;3139396;28;20048;-75
2023/04/21 05:15:06;;;;;;;13.68;7.22;;;;;;;11.52;73.45;99287.03;3141788;28;20122;-76
2023/04/21 05:16:49;;;;;;;10.38;7.15;;;;;;;11.61;73.06;99289.94;3148231;28;20153;-77
2023/04/21 05:18:21;;;;;;;12.80;7.50;;;;;;;11.65;72.93;99289.78;3142558;28;20056;-76
2023/04/21 05:19:53;;;;;;;11.45;7.53;;;;;;;11.75;72.60;99298.75;3138107;28;20395;-75
2023/04/21 05:21:27;;;;;;;12.95;7.28;;;;;;;11.92;72.09;99290.81;3148055;28;20099;-69
2023/04/21 05:22:59;;;;;;;11.95;6.32;;;;;;;12.13;71.39;99287.88;3139103;28;20055;-69
2023/04/21 05:24:31;;;;;;;11.75;7.05;;;;;;;12.34;70.69;99283.97;3148284;28;20055;-70
2023/04/21 05:26:03;;;;;;;10.82;6.25;;;;;;;12.51;70.11;99277.69;3148422;28;20527;-72
2023/04/21 05:27:35;;;;;;;13.00;6.60;;;;;;;12.79;69.51;99281.22;3147834;28;20517;-75
2023/04/21 05:29:10;;;;;;;9.75;5.93;;;;;;;13.00;68.33;99289.50;3146036;28;20193;-73
2023/04/21 05:30:42;;;;;;;9.50;5.53;;;;;;;13.15;67.56;99272.81;3145054;28;20402;-74
2023/04/21 05:32:14;;;;;;;9.77;5.63;;;;;;;13.37;66.95;99283.63;3145984;28;20044;-72
2023/04/21 05:33:46;;;;;;;12.48;5.63;;;;;;;13.57;66.28;99279.69;3144792;28;20135;-75
2023/04/21 05:35:18;;;;;;;7.63;5.25;;;;;;;13.76;65.32;99281.09;3133569;28;20052;-75
2023/04/21 05:36:51;;;;;;;10.43;5.90;;;;;;;13.90;64.66;99273.16;3140664;28;20098;-75
2023/04/21 05:38:22;;;;;;;10.18;5.40;;;;;;;14.12;63.81;99285.63;3146315;28;20056;-72
2023/04/21 05:39:55;;;;;;;9.07;5.05;;;;;;;14.22;63.35;99265.72;3144835;28;20059;-76
2023/04/21 05:41:27;;;;;;;7.38;5.03;;;;;;;14.40;62.76;99273.25;3142714;28;20045;-76
2023/04/21 05:42:59;;;;;;;12.73;5.00;;;;;;;14.64;62.31;99281.22;3138148;28;20044;-75
2023/04/21 05:44:32;;;;;;;14.43;4.90;;;;;;;14.90;61.60;99282.84;3145956;28;20049;-76
2023/04/21 05:46:08;;;;;;;;;;;;;;;15.11;61.82;99269.97;3146289;28;20056;-73
2023/04/21 05:47:40;;;;;;;11.38;4.95;;;;;;;15.25;60.71;99276.84;3136193;28;20020;-75
2023/04/21 05:49:13;;;;;;;8.98;4.50;;;;;;;15.13;60.28;99236.59;3141158;28;20050;-75
2023/04/21 05:50:45;;;;;;;7.15;4.35;;;;;;;15.34;59.66;99249.94;3135869;28;20111;-75
2023/04/21 05:52:17;;;;;;;8.30;4.50;;;;;;;15.31;58.94;99244.09;3144735;28;20510;-73
2023/04/21 05:53:49;;;;;;;8.68;4.30;;;;;;;15.44;58.57;99264.06;3145736;28;20060;-75
2023/04/21 05:55:21;;;;;;;7.82;4.03;;;;;;;15.51;58.28;99261.81;3121357;28;20519;-71
2023/04/21 05:56:53;;;;;;;13.88;4.55;;;;;;;15.57;58.12;99263.16;3145283;28;20052;-73
2023/04/21 05:58:25;;;;;;;6.53;4.13;;;;;;;15.65;57.84;99264.25;3145837;28;20072;-72
2023/04/21 05:59:59;;;;;;;7.93;4.50;;;;;;;15.75;57.31;99258.34;3136754;28;20060;-73
2023/04/21 06:01:30;;;;;;;;;;;;;;;15.83;58.08;99256.81;3142763;28;20052;-72
2023/04/21 06:03:03;;;;;;;9.35;4.50;;;;;;;15.95;57.38;99256.84;3137328;28;19935;-71
2023/04/21 06:04:35;;;;;;;9.40;4.65;;;;;;;15.96;56.71;99234.88;3137137;28;20052;-73
2023/04/21 06:06:08;;;;;;;8.45;4.00;;;;;;;16.24;56.31;99254.59;3141794;28;20170;-73
2023/04/21 06:07:40;;;;;;;7.82;4.15;;;;;;;16.41;55.75;99256.75;3145929;28;20056;-72
2023/04/21 06:09:14;;;;;;;12.02;4.10;;;;;;;16.51;54.51;99247.19;3142953;28;20044;-71
2023/04/21 06:10:46;;;;;;;5.78;3.97;;;;;;;16.72;53.95;99244.66;3135889;28;20049;-72
2023/04/21 06:12:18;;;;;;;8.45;4.22;;;;;;;16.90;53.30;99236.31;3139014;28;20449;-75
2023/04/21 06:13:52;;;;;;;9.70;4.00;;;;;;;17.03;52.10;99245.69;3146068;28;20070;-70
2023/04/21 06:15:26;;;;;;;4.97;3.70;;;;;;;17.19;51.33;99252.38;3145460;28;20045;-71
2023/04/21 06:16:57;;;;;;;6.43;3.72;;;;;;;17.29;51.07;99258.53;3145633;28;20067;-70
2023/04/21 06:18:29;;;;;;;5.88;3.65;;;;;;;17.45;50.27;99263.38;3140871;28;20049;-73
2023/04/21 06:20:02;;;;;;;6.68;3.63;;;;;;;17.54;49.21;99256.50;3142906;28;20492;-72
2023/04/21 06:21:35;;;;;;;6.72;4.22;;;;;;;17.57;48.96;99254.50;3145737;28;20160;-75
2023/04/21 06:23:08;;;;;;;9.93;4.30;;;;;;;17.63;48.35;99247.84;3145198;28;20109;-73
2023/04/21 06:24:40;;;;;;;;;;;;;;;17.62;48.72;99256.72;3145685;28;20799;-70
2023/04/21 06:26:12;;;;;;;10.23;3.40;;;;;;;17.66;48.48;99245.00;3145651;28;19930;-70
2023/04/21 06:27:45;;;;;;;6.35;3.58;;;;;;;17.73;48.01;99252.25;3145484;28;20140;-71
2023/04/21 06:29:17;;;;;;;6.68;3.70;;;;;;;17.79;47.86;99250.91;3141592;28;20576;-74
2023/04/21 06:30:50;;;;;;;7.53;3.80;;;;;;;17.77;47.29;99242.28;3144753;28;20056;-76
2023/04/21 06:32:22;;;;;;;;;;;;;;;17.74;47.58;99248.63;3141855;28;20056;-68
2023/04/21 06:33:54;;;;;;;5.55;3.63;;;;;;;17.53;47.15;99213.56;3140676;28;20026;-74
2023/04/21 06:35:26;;;;;;;10.02;4.57;;;;;;;17.68;46.86;99246.50;3136278;28;20121;-72
2023/04/21 06:36:58;;;;;;;8.38;4.00;;;;;;;17.59;46.50;99217.50;3141481;28;20091;-72
2023/04/21 06:38:30;;;;;;;7.15;3.83;;;;;;;17.70;46.33;99231.44;3145224;28;20055;-76
2023/04/21 06:40:02;;;;;;;6.07;3.85;;;;;;;17.74;46.18;99239.91;3144623;28;20540;-74
2023/04/21 06:41:34;;;;;;;10.98;4.85;;;;;;;17.77;46.24;99237.00;3138631;28;20058;-70
2023/04/21 06:43:07;;;;;;;7.43;3.88;;;;;;;17.79;46.13;99229.84;3145068;28;20094;-75
2023/04/21 06:44:39;;;;;;;5.88;3.78;;;;;;;17.87;45.83;99242.38;3145433;28;20044;-72
2023/04/21 06:46:13;;;;;;;9.55;4.30;;;;;;;17.89;45.53;99236.00;3144686;28;20230;-74
2023/04/21 06:47:45;;;;;;;6.78;4.53;;;;;;;17.92;45.08;99233.13;3132027;28;20052;-74
2023/04/21 06:49:17;;;;;;;10.38;4.10;;;;;;;17.89;44.97;99236.00;3145658;28;20044;-75
2023/04/21 06:50:49;;;;;;;6.43;4.75;;;;;;;17.90;44.59;99235.06;3135227;28;20053;-71
2023/04/21 06:52:21;;;;;;;9.15;4.15;;;;;;;17.91;44.73;99235.88;3145152;28;20048;-75
2023/04/21 06:53:53;;;;;;;7.82;4.15;;;;;;;17.92;44.44;99242.81;3145334;28;20537;-71
2023/04/21 06:55:26;;;;;;;7.65;4.07;;;;;;;17.87;44.29;99235.31;3143569;28;20060;-74
2023/04/21 06:56:58;;;;;;;10.63;4.40;;;;;;;17.91;44.61;99238.53;3136805;28;20080;-75
2023/04/21 06:58:30;;;;;;;8.23;4.03;;;;;;;17.90;44.66;99235.06;3120440;28;20054;-74
2023/04/21 07:00:04;;;;;;;7.78;4.82;;;;;;;18.00;44.48;99243.00;3144667;28;20055;-75
2023/04/21 07:01:38;;;;;;;10.48;4.00;;;;;;;18.04;44.33;99248.84;3133624;28;20067;-74
2023/04/21 07:03:10;;;;;;;8.40;3.85;;;;;;;18.05;43.96;99237.34;3143247;28;20048;-74
2023/04/21 07:04:42;;;;;;;13.38;4.75;;;;;;;18.04;43.97;99239.13;3142154;28;20052;-74
2023/04/21 07:06:14;;;;;;;6.47;4.15;;;;;;;18.00;43.77;99229.84;3142307;28;20122;-74
2023/04/21 07:07:46;;;;;;;7.50;4.15;;;;;;;18.10;43.61;99232.50;3142943;28;20433;-73
2023/04/21 07:09:18;;;;;;;17.95;6.88;;;;;;;18.22;43.60;99249.94;3143057;28;20060;-76
2023/04/21 07:10:50;;;;;;;10.73;5.25;;;;;;;18.27;43.85;99254.78;3140284;28;20131;-74